Terminal Aerodrome Forecast
Issued by NWS Twin Cities, MN

Home | Current Version | Previous Version | Graphics & Text | Print | Product List | Glossary On
Versions: 1 2 3 4 5 6 7 8 9 10 11 12 13 14 15
003
FTUS43 KMPX 171811 CCA
TAFEAU
TAF COR
KEAU 171811Z 1718/1818 15008KT 1 1/2SM -DZ BR OVC012
     FM172000 VRB05KT 2SM -RA BR OVC007
     FM180300 33006KT 4SM -DZ BR OVC008
     FM181000 35008KT P6SM -SN OVC015
     FM181600 33010KT P6SM BKN080=

USA.gov is the U.S. government's official web portal to all federal, state and local government web resources and services.